Aérodrome :
LOGIN :

S'inscrire | Disclaimer

   EN    FR    IT 

 










Légende :    VFR   VFR Marginal   IFR   IFR Intensif   IFR Très Intensif
Visi : 
Plafond : 
>= 8 km
>= 3000ft
5 à 8 km
1000 à 3000 ft
1500m à 5 km
500 à 1000 ft
800 à 1500m
200 à 500 ft
< 800m
< 200 ft
Symboles :   Orages  Brouillard  Fortes neiges  Fortes précipitations  Vent > 20 kt
SIGMETs :   Divers  Orages  Givrage  Turbulence  Onde Orograph.  Cendres Volcan.







- Altitude de l'aérodrome : 200 ft


EBBL - Klein Brogel AB

DERNIER METAR :
  • 190325Z AUTO 21007KT 9999 NCD 11/10 Q1015 BLU

METARs EXPIRÉS :
  • 190255Z AUTO 21007KT 9999 NCD 11/10 Q1014 BLU
  • 190225Z AUTO 21007KT 9999 NCD 12/11 Q1015 BLU
  • 190155Z AUTO 21006KT 9999 NCD 11/11 Q1015 BLU
  • 190125Z AUTO 21006KT 9999 NCD 11/10 Q1015 BLU
  • 190055Z AUTO 21006KT 9999 NCD 12/10 Q1015 BLU

TAF TAF EBBL
Valide du 18 à 19h jusqu'au 19 à 07h UTC


181541Z 1819/1907 24010KT 9999 FEW020 SCT040
BECMG 1904/1906 21013KT
Pas de NOTAMs connus pour ce terrain.



MET'MAP, la Météo Aéronautique d'un coup d'oeil ! - Copyright ORBIFLY Décembre 2007 - Disclaimer

ORBIFLY MET'MAP TEAM :

Programmation & Développement : Alexandra Zaïnal
Conception & Développement : Baudouin d'Aumeries
Co-Programmation & Développement : Marc-Olivier Méhu
Soutien technique & logistique : Manuel Goepfert

Contact : metmap@orbifly.com




SOURCES & CREDITS :

   NOAA